Segredos Do Mar — CUEA4 — position and weather

sailwx.info

Track history (hours):
 
Tides and Currents Weather Stations Pressure Air Temp Water Temp Dewpoint Dewpoint Depression Visibility Wind Speed Wind Dir Waves Ship Positions

Segredos Do Mar

Last reported at 2018-Jun-18 21:00 UTC. Time now 2018-Jun-18 21:15 UTC.
Position N 38°26' W 008°59'.

Length 22 m.

MMSI: 263500212.

Date/timePositionNaut miles runAvg speedWind from/ knotsBaromVisibWave heightAir tempDewpointWater temp
2018-Jun-18 21:00N 38°26' W 008°59'3 7.0
2018-Jun-18 20:30N 38°26' W 009°04'3 5.0
2018-Jun-18 20:00N 38°26' W 009°07'0 0.0
2018-Jun-18 11:24N 38°26' W 009°07'0 0.3
2018-Jun-18 11:00N 38°26' W 009°07'0 0.0
2018-Jun-18 10:30N 38°26' W 009°07'0 0.0
2018-Jun-18 10:00N 38°26' W 009°07'0 0.0
2018-Jun-18 09:30N 38°26' W 009°07'0 0.0
2018-Jun-18 09:00N 38°26' W 009°07'1 2.6
2018-Jun-18 08:30N 38°26' W 009°05'4 8.0
2018-Jun-18 08:00N 38°25' W 009°00'4 7.7
2018-Jun-18 07:30N 38°23' W 008°56'4 7.5
2018-Jun-18 07:00N 38°21' W 008°52'1 1.9
2018-Jun-18 06:28N 38°21' W 008°51'0 0.4
2018-Jun-18 06:00N 38°21' W 008°51'0 0.2
2018-Jun-18 05:27N 38°21' W 008°50'0 0.1
2018-Jun-18 05:00N 38°21' W 008°50'0 0.5
2018-Jun-18 04:30N 38°21' W 008°51'0 0.7
2018-Jun-18 04:00N 38°22' W 008°50'0 0.6
2018-Jun-18 03:30N 38°22' W 008°50'2 4.6
2018-Jun-18 03:00N 38°19' W 008°49'3 5.4
2018-Jun-18 02:30N 38°17' W 008°48'0 0.5
2018-Jun-18 02:00N 38°17' W 008°48'0 0.2
2018-Jun-18 01:30N 38°17' W 008°48'0 0.2
2018-Jun-18 01:00N 38°17' W 008°48'1 1.3
2018-Jun-18 00:30N 38°17' W 008°48'1 1.6
2018-Jun-18 00:00N 38°16' W 008°47'3 6.3
2018-Jun-17 23:29N 38°19' W 008°50'5 6.7
2018-Jun-17 22:43N 38°23' W 008°54'2 6.9
2018-Jun-17 22:29N 38°24' W 008°55'3 7.0
2018-Jun-17 22:00N 38°27' W 008°58'5 7.9
2018-Jun-17 21:24N 38°31' W 008°55'  
2018-Jun-15 10:02N 38°30' W 008°55'2 7.1
2018-Jun-15 09:49N 38°29' W 008°56'2 6.7
2018-Jun-15 09:30N 38°28' W 008°58'3 6.2
2018-Jun-15 09:00N 38°26' W 009°01'3 6.6
2018-Jun-15 08:30N 38°25' W 009°05'3 6.3
2018-Jun-15 08:00N 38°25' W 009°09'3 6.2
2018-Jun-15 07:30N 38°25' W 009°13'3 5.5
2018-Jun-15 06:58N 38°27' W 009°14'3 6.4
2018-Jun-15 06:30N 38°30' W 009°13'3 6.0
2018-Jun-15 05:58N 38°34' W 009°14'1 2.2
2018-Jun-15 05:29N 38°35' W 009°14'0 0.1
2018-Jun-15 04:55N 38°35' W 009°14'0 0.2
2018-Jun-15 04:28N 38°35' W 009°14'0 0.0
2018-Jun-15 03:56N 38°35' W 009°14'2 3.5
2018-Jun-15 03:30N 38°36' W 009°15'3 5.7
2018-Jun-15 03:00N 38°37' W 009°19'1 1.5
2018-Jun-15 02:30N 38°36' W 009°19'0 0.0
2018-Jun-15 01:59N 38°36' W 009°19'0 0.1
2018-Jun-15 01:29N 38°36' W 009°19'0 0.0
2018-Jun-15 00:58N 38°36' W 009°19'0 0.1
2018-Jun-15 00:27N 38°36' W 009°19'0 0.1
2018-Jun-15 00:00N 38°36' W 009°19'2 3.9
2018-Jun-14 23:29N 38°37' W 009°17'1 2.3
2018-Jun-14 22:58N 38°38' W 009°16'2 4.7
2018-Jun-14 22:29N 38°37' W 009°19'2 4.7
2018-Jun-14 22:00N 38°37' W 009°21'3 5.7
2018-Jun-14 21:30N 38°39' W 009°23'2 4.4
2018-Jun-14 21:00N 38°41' W 009°25'2 4.3
2018-Jun-14 20:30N 38°40' W 009°23'2 3.5
2018-Jun-14 20:00N 38°41' W 009°25'1 2.2
2018-Jun-14 19:28N 38°42' W 009°25'0 0.0
2018-Jun-14 18:59N 38°42' W 009°25'0 0.0
2018-Jun-14 18:30N 38°42' W 009°25'0 0.0
2018-Jun-14 11:12N 38°42' W 009°25'1 4.2
2018-Jun-14 11:01N 38°41' W 009°24'2 3.1
2018-Jun-14 10:30N 38°40' W 009°23'0 0.4
2018-Jun-14 09:59N 38°40' W 009°23'0 0.5
2018-Jun-14 09:30N 38°40' W 009°23'1 2.8
2018-Jun-14 09:01N 38°39' W 009°24'0 0.5
2018-Jun-14 08:30N 38°39' W 009°24'1 1.8
2018-Jun-14 08:01N 38°39' W 009°23'3 6.6
2018-Jun-14 07:30N 38°38' W 009°19'3 6.2
2018-Jun-14 06:56N 38°36' W 009°16'3 6.0
2018-Jun-14 06:27N 38°33' W 009°13'3 5.9
2018-Jun-14 05:57N 38°35' W 009°16'1 2.6
2018-Jun-14 05:30N 38°36' W 009°16'0 0.2
2018-Jun-14 05:00N 38°36' W 009°16'2 4.6
2018-Jun-14 04:30N 38°37' W 009°19'3 6.1
2018-Jun-14 04:01N 38°39' W 009°22'2 4.5
2018-Jun-14 03:30N 38°41' W 009°23'2 4.6
2018-Jun-14 03:00N 38°41' W 009°26'0 0.3
2018-Jun-14 02:31N 38°41' W 009°26'1 0.3
2018-Jun-13 22:29N 38°42' W 009°25'1 1.7
2018-Jun-13 22:00N 38°41' W 009°24'1 1.7
2018-Jun-13 21:30N 38°41' W 009°23'2 2.7
2018-Jun-13 20:57N 38°40' W 009°22'3 6.9
2018-Jun-13 20:30N 38°38' W 009°19'3 6.6
2018-Jun-13 19:59N 38°35' W 009°16'3 6.4
2018-Jun-13 19:27N 38°32' W 009°16'4 5.9
2018-Jun-13 18:50N 38°28' W 009°15'2 5.9
2018-Jun-13 18:27N 38°26' W 009°14'2 5.1
2018-Jun-13 18:00N 38°24' W 009°12'4 7.1
2018-Jun-13 17:30N 38°26' W 009°08'1 2.0
2018-Jun-13 17:00N 38°26' W 009°07'0 0.0
2018-Jun-13 12:13N 38°26' W 009°07'0 0.7
2018-Jun-13 12:00N 38°26' W 009°07'0 0.0
2018-Jun-13 11:31N 38°26' W 009°07'0 0.0
2018-Jun-13 11:00N 38°26' W 009°07'0 0.0
2018-Jun-13 10:30N 38°26' W 009°07'4 5.2
2018-Jun-13 09:50N 38°25' W 009°11'3 7.0
2018-Jun-13 09:27N 38°25' W 009°14'4 7.5
2018-Jun-13 08:59N 38°28' W 009°17'4 7.6
2018-Jun-13 08:30N 38°31' W 009°19'4 7.6
2018-Jun-13 08:00N 38°35' W 009°21'4 7.8
2018-Jun-13 07:30N 38°38' W 009°23'3 5.3
2018-Jun-13 07:00N 38°41' W 009°24'0 0.3
2018-Jun-13 06:30N 38°41' W 009°24'0 0.2
2018-Jun-13 06:00N 38°41' W 009°24'1 2.4
2018-Jun-13 05:30N 38°40' W 009°25'1 1.3
2018-Jun-13 05:00N 38°41' W 009°25'1 1.9
2018-Jun-13 04:30N 38°41' W 009°26'0 0.3
2018-Jun-13 04:00N 38°41' W 009°26'1 2.5
2018-Jun-13 03:30N 38°41' W 009°25'2 4.7
2018-Jun-13 03:00N 38°40' W 009°22'3 5.6
2018-Jun-13 02:30N 38°39' W 009°19'3 5.5
2018-Jun-13 01:55N 38°37' W 009°15'1 1.7
2018-Jun-13 01:30N 38°37' W 009°15'0 0.3
2018-Jun-13 00:54N 38°37' W 009°15'0 0.1
2018-Jun-13 00:29N 38°37' W 009°15'0 0.9
2018-Jun-12 23:59N 38°37' W 009°15'2 4.8
2018-Jun-12 23:30N 38°35' W 009°15'3 5.5
2018-Jun-12 23:00N 38°32' W 009°14'3 5.8
2018-Jun-12 22:24N 38°29' W 009°14'2 5.7
2018-Jun-12 21:59N 38°26' W 009°14'2 5.0
2018-Jun-12 21:30N 38°24' W 009°13'3 6.5
2018-Jun-12 21:00N 38°25' W 009°08'3 7.0
2018-Jun-12 20:30N 38°26' W 009°04'4 7.1
2018-Jun-12 20:00N 38°27' W 008°60'4 7.5
2018-Jun-12 19:30N 38°29' W 008°56'3 0.2
2018-Jun-12 07:59N 38°31' W 008°54'3 6.5
2018-Jun-12 07:30N 38°29' W 008°57'2 4.7
2018-Jun-12 07:00N 38°27' W 008°58'3 5.1
2018-Jun-12 06:30N 38°26' W 008°54'1 2.0
2018-Jun-12 05:58N 38°25' W 008°54'2 3.8
2018-Jun-12 05:30N 38°24' W 008°52'2 3.5
2018-Jun-12 04:57N 38°22' W 008°51'2 4.6
2018-Jun-12 04:30N 38°23' W 008°53'2 4.3
2018-Jun-12 04:00N 38°25' W 008°54'1 2.3
2018-Jun-12 03:29N 38°26' W 008°53'0 0.0
2018-Jun-12 02:55N 38°26' W 008°53'0 0.0
2018-Jun-12 02:28N 38°26' W 008°53'0 0.0
2018-Jun-12 01:57N 38°26' W 008°53'3 4.6
2018-Jun-12 01:20N 38°23' W 008°51'2 5.9
2018-Jun-12 00:58N 38°21' W 008°50'3 5.2
2018-Jun-12 00:29N 38°19' W 008°50'3 6.3
2018-Jun-12 00:00N 38°16' W 008°49'1 2.1
2018-Jun-11 23:30N 38°16' W 008°48'1 2.3
2018-Jun-11 23:00N 38°17' W 008°48'5 6.4
2018-Jun-11 22:14N 38°21' W 008°50'3 6.7
2018-Jun-11 21:51N 38°23' W 008°53'2 6.7
2018-Jun-11 21:30N 38°25' W 008°55'3 6.8
2018-Jun-11 21:00N 38°27' W 008°58'3 5.5
2018-Jun-11 20:30N 38°29' W 008°56'3 0.7
2018-Jun-11 16:46N 38°31' W 008°54'2 6.7
2018-Jun-11 16:30N 38°30' W 008°55'3 5.8
2018-Jun-11 16:00N 38°28' W 008°58'3 7.0
2018-Jun-11 15:30N 38°26' W 009°02'4 7.4
2018-Jun-11 15:01N 38°26' W 009°06'0 0.7
2018-Jun-11 14:30N 38°26' W 009°07'0 0.0
2018-Jun-11 11:12N 38°26' W 009°07'0 1.5
2018-Jun-11 11:00N 38°26' W 009°06'4 8.0
2018-Jun-11 10:30N 38°25' W 009°11'4 7.4
2018-Jun-11 10:00N 38°26' W 009°15'5 8.4
2018-Jun-11 09:27N 38°30' W 009°19'4 8.3
2018-Jun-11 09:00N 38°33' W 009°21'4 8.1
2018-Jun-11 08:30N 38°37' W 009°23'3 5.1
2018-Jun-11 08:00N 38°39' W 009°25'0 0.4
2018-Jun-11 07:30N 38°39' W 009°25'0 0.2
2018-Jun-11 06:59N 38°39' W 009°25'0 0.1
2018-Jun-11 06:29N 38°40' W 009°25'0 0.8
2018-Jun-11 06:00N 38°40' W 009°24'2 3.3
2018-Jun-11 05:30N 38°41' W 009°26'0 0.8
2018-Jun-11 05:00N 38°40' W 009°27'0 0.2
2018-Jun-11 04:30N 38°40' W 009°27'1 1.5
2018-Jun-11 04:00N 38°41' W 009°26'0 0.2
2018-Jun-11 03:29N 38°41' W 009°26'1 1.2
2018-Jun-11 03:00N 38°41' W 009°25'2 3.7
2018-Jun-11 02:29N 38°40' W 009°24'3 5.4
2018-Jun-11 01:59N 38°38' W 009°21'3 5.5
2018-Jun-11 01:29N 38°36' W 009°19'3 5.4
2018-Jun-11 01:00N 38°33' W 009°17'3 6.5
2018-Jun-11 00:29N 38°30' W 009°16'3 6.5
2018-Jun-11 00:00N 38°27' W 009°15'3 6.2
2018-Jun-10 23:30N 38°24' W 009°13'3 6.7
2018-Jun-10 22:59N 38°25' W 009°09'3 7.0
2018-Jun-10 22:30N 38°25' W 009°04'4 7.2
2018-Jun-10 22:00N 38°26' W 009°00'3 6.3
2018-Jun-10 21:30N 38°28' W 008°57'  
Track history (hours):
 
Tides and Currents Weather Stations Pressure Air Temp Water Temp Dewpoint Dewpoint Depression Visibility Wind Speed Wind Dir Waves Ship Positions

Segredos Do Mar

Last reported at 2018-Jun-18 21:00 UTC. Time now 2018-Jun-18 21:15 UTC.
Position N 38°26' W 008°59'.

Length 22 m.

MMSI: 263500212.

Date/timePositionNaut miles runAvg speedWind from/ knotsBaromVisibWave heightAir tempDewpointWater temp
2018-Jun-18 21:00N 38°26' W 008°59'3 7.0
2018-Jun-18 20:30N 38°26' W 009°04'3 5.0
2018-Jun-18 20:00N 38°26' W 009°07'0 0.0
2018-Jun-18 11:24N 38°26' W 009°07'0 0.3
2018-Jun-18 11:00N 38°26' W 009°07'0 0.0
2018-Jun-18 10:30N 38°26' W 009°07'0 0.0
2018-Jun-18 10:00N 38°26' W 009°07'0 0.0
2018-Jun-18 09:30N 38°26' W 009°07'0 0.0
2018-Jun-18 09:00N 38°26' W 009°07'1 2.6
2018-Jun-18 08:30N 38°26' W 009°05'4 8.0
2018-Jun-18 08:00N 38°25' W 009°00'4 7.7
2018-Jun-18 07:30N 38°23' W 008°56'4 7.5
2018-Jun-18 07:00N 38°21' W 008°52'1 1.9
2018-Jun-18 06:28N 38°21' W 008°51'0 0.4
2018-Jun-18 06:00N 38°21' W 008°51'0 0.2
2018-Jun-18 05:27N 38°21' W 008°50'0 0.1
2018-Jun-18 05:00N 38°21' W 008°50'0 0.5
2018-Jun-18 04:30N 38°21' W 008°51'0 0.7
2018-Jun-18 04:00N 38°22' W 008°50'0 0.6
2018-Jun-18 03:30N 38°22' W 008°50'2 4.6
2018-Jun-18 03:00N 38°19' W 008°49'3 5.4
2018-Jun-18 02:30N 38°17' W 008°48'0 0.5
2018-Jun-18 02:00N 38°17' W 008°48'0 0.2
2018-Jun-18 01:30N 38°17' W 008°48'0 0.2
2018-Jun-18 01:00N 38°17' W 008°48'1 1.3
2018-Jun-18 00:30N 38°17' W 008°48'1 1.6
2018-Jun-18 00:00N 38°16' W 008°47'3 6.3
2018-Jun-17 23:29N 38°19' W 008°50'5 6.7
2018-Jun-17 22:43N 38°23' W 008°54'2 6.9
2018-Jun-17 22:29N 38°24' W 008°55'3 7.0
2018-Jun-17 22:00N 38°27' W 008°58'5 7.9
2018-Jun-17 21:24N 38°31' W 008°55'  
2018-Jun-15 10:02N 38°30' W 008°55'2 7.1
2018-Jun-15 09:49N 38°29' W 008°56'2 6.7
2018-Jun-15 09:30N 38°28' W 008°58'3 6.2
2018-Jun-15 09:00N 38°26' W 009°01'3 6.6
2018-Jun-15 08:30N 38°25' W 009°05'3 6.3
2018-Jun-15 08:00N 38°25' W 009°09'3 6.2
2018-Jun-15 07:30N 38°25' W 009°13'3 5.5
2018-Jun-15 06:58N 38°27' W 009°14'3 6.4
2018-Jun-15 06:30N 38°30' W 009°13'3 6.0
2018-Jun-15 05:58N 38°34' W 009°14'1 2.2
2018-Jun-15 05:29N 38°35' W 009°14'0 0.1
2018-Jun-15 04:55N 38°35' W 009°14'0 0.2
2018-Jun-15 04:28N 38°35' W 009°14'0 0.0
2018-Jun-15 03:56N 38°35' W 009°14'2 3.5
2018-Jun-15 03:30N 38°36' W 009°15'3 5.7
2018-Jun-15 03:00N 38°37' W 009°19'1 1.5
2018-Jun-15 02:30N 38°36' W 009°19'0 0.0
2018-Jun-15 01:59N 38°36' W 009°19'0 0.1
2018-Jun-15 01:29N 38°36' W 009°19'0 0.0
2018-Jun-15 00:58N 38°36' W 009°19'0 0.1
2018-Jun-15 00:27N 38°36' W 009°19'0 0.1
2018-Jun-15 00:00N 38°36' W 009°19'2 3.9
2018-Jun-14 23:29N 38°37' W 009°17'1 2.3
2018-Jun-14 22:58N 38°38' W 009°16'2 4.7
2018-Jun-14 22:29N 38°37' W 009°19'2 4.7
2018-Jun-14 22:00N 38°37' W 009°21'3 5.7
2018-Jun-14 21:30N 38°39' W 009°23'2 4.4
2018-Jun-14 21:00N 38°41' W 009°25'2 4.3
2018-Jun-14 20:30N 38°40' W 009°23'2 3.5
2018-Jun-14 20:00N 38°41' W 009°25'1 2.2
2018-Jun-14 19:28N 38°42' W 009°25'0 0.0
2018-Jun-14 18:59N 38°42' W 009°25'0 0.0
2018-Jun-14 18:30N 38°42' W 009°25'0 0.0
2018-Jun-14 11:12N 38°42' W 009°25'1 4.2
2018-Jun-14 11:01N 38°41' W 009°24'2 3.1
2018-Jun-14 10:30N 38°40' W 009°23'0 0.4
2018-Jun-14 09:59N 38°40' W 009°23'0 0.5
2018-Jun-14 09:30N 38°40' W 009°23'1 2.8
2018-Jun-14 09:01N 38°39' W 009°24'0 0.5
2018-Jun-14 08:30N 38°39' W 009°24'1 1.8
2018-Jun-14 08:01N 38°39' W 009°23'3 6.6
2018-Jun-14 07:30N 38°38' W 009°19'3 6.2
2018-Jun-14 06:56N 38°36' W 009°16'3 6.0
2018-Jun-14 06:27N 38°33' W 009°13'3 5.9
2018-Jun-14 05:57N 38°35' W 009°16'1 2.6
2018-Jun-14 05:30N 38°36' W 009°16'0 0.2
2018-Jun-14 05:00N 38°36' W 009°16'2 4.6
2018-Jun-14 04:30N 38°37' W 009°19'3 6.1
2018-Jun-14 04:01N 38°39' W 009°22'2 4.5
2018-Jun-14 03:30N 38°41' W 009°23'2 4.6
2018-Jun-14 03:00N 38°41' W 009°26'0 0.3
2018-Jun-14 02:31N 38°41' W 009°26'1 0.3
2018-Jun-13 22:29N 38°42' W 009°25'1 1.7
2018-Jun-13 22:00N 38°41' W 009°24'1 1.7
2018-Jun-13 21:30N 38°41' W 009°23'2 2.7
2018-Jun-13 20:57N 38°40' W 009°22'3 6.9
2018-Jun-13 20:30N 38°38' W 009°19'3 6.6
2018-Jun-13 19:59N 38°35' W 009°16'3 6.4
2018-Jun-13 19:27N 38°32' W 009°16'4 5.9
2018-Jun-13 18:50N 38°28' W 009°15'2 5.9
2018-Jun-13 18:27N 38°26' W 009°14'2 5.1
2018-Jun-13 18:00N 38°24' W 009°12'4 7.1
2018-Jun-13 17:30N 38°26' W 009°08'1 2.0
2018-Jun-13 17:00N 38°26' W 009°07'0 0.0
2018-Jun-13 12:13N 38°26' W 009°07'0 0.7
2018-Jun-13 12:00N 38°26' W 009°07'0 0.0
2018-Jun-13 11:31N 38°26' W 009°07'0 0.0
2018-Jun-13 11:00N 38°26' W 009°07'0 0.0
2018-Jun-13 10:30N 38°26' W 009°07'4 5.2
2018-Jun-13 09:50N 38°25' W 009°11'3 7.0
2018-Jun-13 09:27N 38°25' W 009°14'4 7.5
2018-Jun-13 08:59N 38°28' W 009°17'4 7.6
2018-Jun-13 08:30N 38°31' W 009°19'4 7.6
2018-Jun-13 08:00N 38°35' W 009°21'4 7.8
2018-Jun-13 07:30N 38°38' W 009°23'3 5.3
2018-Jun-13 07:00N 38°41' W 009°24'0 0.3
2018-Jun-13 06:30N 38°41' W 009°24'0 0.2
2018-Jun-13 06:00N 38°41' W 009°24'1 2.4
2018-Jun-13 05:30N 38°40' W 009°25'1 1.3
2018-Jun-13 05:00N 38°41' W 009°25'1 1.9
2018-Jun-13 04:30N 38°41' W 009°26'0 0.3
2018-Jun-13 04:00N 38°41' W 009°26'1 2.5
2018-Jun-13 03:30N 38°41' W 009°25'2 4.7
2018-Jun-13 03:00N 38°40' W 009°22'3 5.6
2018-Jun-13 02:30N 38°39' W 009°19'3 5.5
2018-Jun-13 01:55N 38°37' W 009°15'1 1.7
2018-Jun-13 01:30N 38°37' W 009°15'0 0.3
2018-Jun-13 00:54N 38°37' W 009°15'0 0.1
2018-Jun-13 00:29N 38°37' W 009°15'0 0.9
2018-Jun-12 23:59N 38°37' W 009°15'2 4.8
2018-Jun-12 23:30N 38°35' W 009°15'3 5.5
2018-Jun-12 23:00N 38°32' W 009°14'3 5.8
2018-Jun-12 22:24N 38°29' W 009°14'2 5.7
2018-Jun-12 21:59N 38°26' W 009°14'2 5.0
2018-Jun-12 21:30N 38°24' W 009°13'3 6.5
2018-Jun-12 21:00N 38°25' W 009°08'3 7.0
2018-Jun-12 20:30N 38°26' W 009°04'4 7.1
2018-Jun-12 20:00N 38°27' W 008°60'4 7.5
2018-Jun-12 19:30N 38°29' W 008°56'3 0.2
2018-Jun-12 07:59N 38°31' W 008°54'3 6.5
2018-Jun-12 07:30N 38°29' W 008°57'2 4.7
2018-Jun-12 07:00N 38°27' W 008°58'3 5.1
2018-Jun-12 06:30N 38°26' W 008°54'1 2.0
2018-Jun-12 05:58N 38°25' W 008°54'2 3.8
2018-Jun-12 05:30N 38°24' W 008°52'2 3.5
2018-Jun-12 04:57N 38°22' W 008°51'2 4.6
2018-Jun-12 04:30N 38°23' W 008°53'2 4.3
2018-Jun-12 04:00N 38°25' W 008°54'1 2.3
2018-Jun-12 03:29N 38°26' W 008°53'0 0.0
2018-Jun-12 02:55N 38°26' W 008°53'0 0.0
2018-Jun-12 02:28N 38°26' W 008°53'0 0.0
2018-Jun-12 01:57N 38°26' W 008°53'3 4.6
2018-Jun-12 01:20N 38°23' W 008°51'2 5.9
2018-Jun-12 00:58N 38°21' W 008°50'3 5.2
2018-Jun-12 00:29N 38°19' W 008°50'3 6.3
2018-Jun-12 00:00N 38°16' W 008°49'1 2.1
2018-Jun-11 23:30N 38°16' W 008°48'1 2.3
2018-Jun-11 23:00N 38°17' W 008°48'5 6.4
2018-Jun-11 22:14N 38°21' W 008°50'3 6.7
2018-Jun-11 21:51N 38°23' W 008°53'2 6.7
2018-Jun-11 21:30N 38°25' W 008°55'3 6.8
2018-Jun-11 21:00N 38°27' W 008°58'3 5.5
2018-Jun-11 20:30N 38°29' W 008°56'3 0.7
2018-Jun-11 16:46N 38°31' W 008°54'2 6.7
2018-Jun-11 16:30N 38°30' W 008°55'3 5.8
2018-Jun-11 16:00N 38°28' W 008°58'3 7.0
2018-Jun-11 15:30N 38°26' W 009°02'4 7.4
2018-Jun-11 15:01N 38°26' W 009°06'0 0.7
2018-Jun-11 14:30N 38°26' W 009°07'0 0.0
2018-Jun-11 11:12N 38°26' W 009°07'0 1.5
2018-Jun-11 11:00N 38°26' W 009°06'4 8.0
2018-Jun-11 10:30N 38°25' W 009°11'4 7.4
2018-Jun-11 10:00N 38°26' W 009°15'5 8.4
2018-Jun-11 09:27N 38°30' W 009°19'4 8.3
2018-Jun-11 09:00N 38°33' W 009°21'4 8.1
2018-Jun-11 08:30N 38°37' W 009°23'3 5.1
2018-Jun-11 08:00N 38°39' W 009°25'0 0.4
2018-Jun-11 07:30N 38°39' W 009°25'0 0.2
2018-Jun-11 06:59N 38°39' W 009°25'0 0.1
2018-Jun-11 06:29N 38°40' W 009°25'0 0.8
2018-Jun-11 06:00N 38°40' W 009°24'2 3.3
2018-Jun-11 05:30N 38°41' W 009°26'0 0.8
2018-Jun-11 05:00N 38°40' W 009°27'0 0.2
2018-Jun-11 04:30N 38°40' W 009°27'1 1.5
2018-Jun-11 04:00N 38°41' W 009°26'0 0.2
2018-Jun-11 03:29N 38°41' W 009°26'1 1.2
2018-Jun-11 03:00N 38°41' W 009°25'2 3.7
2018-Jun-11 02:29N 38°40' W 009°24'3 5.4
2018-Jun-11 01:59N 38°38' W 009°21'3 5.5
2018-Jun-11 01:29N 38°36' W 009°19'3 5.4
2018-Jun-11 01:00N 38°33' W 009°17'3 6.5
2018-Jun-11 00:29N 38°30' W 009°16'3 6.5
2018-Jun-11 00:00N 38°27' W 009°15'3 6.2
2018-Jun-10 23:30N 38°24' W 009°13'3 6.7
2018-Jun-10 22:59N 38°25' W 009°09'3 7.0
2018-Jun-10 22:30N 38°25' W 009°04'4 7.2
2018-Jun-10 22:00N 38°26' W 009°00'3 6.3
2018-Jun-10 21:30N 38°28' W 008°57'  

Dump ship's entire track history